createdAt,value
2018-04-27T00:00:37.461Z,13.50
2018-04-27T00:01:38.519Z,13.50
2018-04-27T00:02:39.639Z,13.50
2018-04-27T00:03:41.435Z,13.50
2018-04-27T00:04:42.518Z,13.40
2018-04-27T00:05:44.328Z,13.30
2018-04-27T00:06:45.400Z,13.40
2018-04-27T00:07:46.466Z,13.40
2018-04-27T00:08:47.527Z,13.40
2018-04-27T00:09:48.587Z,13.40
2018-04-27T00:10:49.650Z,13.30
2018-04-27T00:11:50.750Z,13.30
2018-04-27T00:12:51.819Z,13.30
2018-04-27T00:13:53.622Z,13.30
2018-04-27T00:16:02.350Z,13.30
2018-04-27T00:17:03.419Z,13.10
2018-04-27T00:18:04.500Z,13.20
2018-04-27T00:19:05.570Z,13.20
2018-04-27T00:20:06.626Z,13.20
2018-04-27T00:21:07.693Z,13.20
2018-04-27T00:22:08.767Z,13.20
2018-04-27T00:23:09.830Z,13.20
2018-04-27T00:24:10.924Z,13.20
2018-04-27T00:25:12.731Z,13.10
2018-04-27T00:26:13.812Z,13.10
2018-04-27T00:27:14.895Z,13.10
2018-04-27T00:28:15.979Z,13.10
2018-04-27T00:29:17.770Z,13.10
2018-04-27T00:30:18.811Z,13.10
2018-04-27T00:31:19.869Z,13.10
2018-04-27T00:32:20.923Z,13.10
2018-04-27T00:33:22.018Z,13.10
2018-04-27T00:34:23.103Z,13.10
2018-04-27T00:35:24.150Z,13.10
2018-04-27T00:36:25.225Z,13.10
2018-04-27T00:37:26.283Z,13.00
2018-04-27T00:38:28.082Z,13.00
2018-04-27T00:39:29.126Z,13.00
2018-04-27T00:40:30.187Z,13.00
2018-04-27T00:41:32.000Z,12.90
2018-04-27T00:42:33.044Z,12.90
2018-04-27T00:43:34.116Z,12.90
2018-04-27T00:44:35.170Z,12.90
2018-04-27T00:45:36.234Z,12.90
2018-04-27T00:46:37.311Z,12.80
2018-04-27T00:47:38.382Z,12.80
2018-04-27T00:48:39.494Z,12.80
2018-04-27T00:49:41.286Z,12.80
2018-04-27T00:50:42.355Z,12.80
2018-04-27T00:51:44.448Z,12.80
2018-04-27T00:52:57.743Z,12.70
2018-04-27T00:53:59.532Z,12.60
2018-04-27T00:55:00.579Z,12.60
2018-04-27T00:56:01.636Z,12.60
2018-04-27T00:57:03.453Z,12.60
2018-04-27T00:58:04.526Z,12.60
2018-04-27T00:59:06.331Z,12.60
2018-04-27T01:00:07.379Z,12.60
2018-04-27T01:01:09.186Z,12.60
2018-04-27T01:02:10.261Z,12.60
2018-04-27T01:03:12.067Z,12.60
2018-04-27T01:04:13.166Z,12.50
2018-04-27T01:05:14.242Z,12.70
2018-04-27T01:06:16.042Z,12.50
2018-04-27T01:07:17.115Z,12.50
2018-04-27T01:08:18.188Z,12.50
2018-04-27T01:09:19.250Z,12.60
2018-04-27T01:10:20.343Z,12.50
2018-04-27T01:11:21.407Z,12.50
2018-04-27T01:12:23.203Z,12.50
2018-04-27T01:13:24.263Z,12.50
2018-04-27T01:14:26.075Z,12.50
2018-04-27T01:15:27.143Z,12.40
2018-04-27T01:16:28.962Z,12.50
2018-04-27T01:17:30.064Z,12.50
2018-04-27T01:18:31.123Z,12.40
2018-04-27T01:19:32.228Z,12.50
2018-04-27T01:20:33.319Z,12.40
2018-04-27T01:21:34.394Z,12.40
2018-04-27T01:22:35.450Z,12.50
2018-04-27T01:23:36.539Z,12.50
2018-04-27T01:24:37.616Z,12.50
2018-04-27T01:25:38.889Z,12.50
2018-04-27T01:26:39.955Z,12.40
2018-04-27T01:27:41.043Z,12.50
2018-04-27T01:28:42.104Z,12.50
2018-04-27T01:29:43.190Z,12.40
2018-04-27T01:30:44.270Z,12.40
2018-04-27T01:31:46.059Z,12.50
2018-04-27T01:32:47.118Z,12.40
2018-04-27T01:33:48.184Z,12.40
2018-04-27T01:34:49.266Z,12.40
2018-04-27T01:35:50.322Z,12.40
2018-04-27T01:36:51.395Z,12.40
2018-04-27T01:37:52.480Z,12.40
2018-04-27T01:38:53.542Z,12.40
2018-04-27T01:39:54.623Z,12.40
2018-04-27T01:40:55.689Z,12.40
2018-04-27T01:41:56.735Z,12.30
2018-04-27T01:42:57.783Z,12.30
2018-04-27T01:43:58.843Z,12.30
2018-04-27T01:44:59.907Z,12.30
2018-04-27T01:46:00.979Z,12.40
2018-04-27T01:47:02.051Z,12.30
2018-04-27T01:48:03.124Z,12.30
2018-04-27T01:49:04.937Z,12.30
2018-04-27T01:50:06.020Z,12.30
2018-04-27T01:51:07.084Z,12.30
2018-04-27T01:52:08.883Z,12.30
2018-04-27T01:53:10.692Z,12.30
2018-04-27T01:54:11.742Z,12.30
2018-04-27T01:55:12.816Z,12.40
2018-04-27T01:56:13.863Z,12.30
2018-04-27T01:57:14.937Z,12.30
2018-04-27T01:58:15.991Z,12.00
2018-04-27T01:59:17.039Z,12.20
2018-04-27T02:00:18.108Z,12.20
2018-04-27T02:01:19.167Z,12.20
2018-04-27T02:02:20.239Z,12.10
2018-04-27T02:03:21.321Z,12.20
2018-04-27T02:04:22.380Z,12.20
2018-04-27T02:05:23.447Z,12.20
2018-04-27T02:06:24.588Z,12.20
2018-04-27T02:07:25.574Z,12.20
2018-04-27T02:08:27.386Z,12.10
2018-04-27T02:09:28.443Z,12.10
2018-04-27T02:10:29.527Z,12.10
2018-04-27T02:11:30.594Z,12.10
2018-04-27T02:12:31.705Z,12.10
2018-04-27T02:13:32.783Z,12.20
2018-04-27T02:14:34.595Z,12.00
2018-04-27T02:15:35.726Z,12.00
2018-04-27T02:16:36.847Z,12.00
2018-04-27T02:17:37.895Z,12.00
2018-04-27T02:18:38.963Z,12.00
2018-04-27T02:19:40.019Z,12.00
2018-04-27T02:20:41.098Z,12.00
2018-04-27T02:21:42.170Z,11.90
2018-04-27T02:22:43.978Z,11.90
2018-04-27T02:23:45.021Z,11.90
2018-04-27T02:24:46.070Z,11.90
2018-04-27T02:25:47.871Z,11.90
2018-04-27T02:26:48.925Z,11.90
2018-04-27T02:27:49.970Z,11.90
2018-04-27T02:28:51.083Z,12.00
2018-04-27T02:29:52.171Z,11.80
2018-04-27T02:30:53.253Z,11.80
2018-04-27T02:31:54.326Z,11.80
2018-04-27T02:32:55.394Z,11.80
2018-04-27T02:33:56.454Z,11.80
2018-04-27T02:34:57.527Z,11.80
2018-04-27T02:35:58.612Z,11.80
2018-04-27T02:36:59.681Z,11.80
2018-04-27T02:38:01.470Z,11.80
2018-04-27T02:39:02.531Z,11.80
2018-04-27T02:40:03.627Z,11.80
2018-04-27T02:41:04.696Z,11.80
2018-04-27T02:42:06.118Z,11.80
2018-04-27T02:43:07.174Z,11.70
2018-04-27T02:44:08.992Z,11.70
2018-04-27T02:45:10.063Z,11.70
2018-04-27T02:46:11.122Z,11.70
2018-04-27T02:47:12.189Z,11.70
2018-04-27T02:48:13.277Z,11.70
2018-04-27T02:49:14.351Z,11.70
2018-04-27T02:50:15.440Z,11.70
2018-04-27T02:51:16.557Z,11.70
2018-04-27T02:52:18.392Z,11.60
2018-04-27T02:53:19.464Z,11.60
2018-04-27T02:54:20.516Z,11.70
2018-04-27T02:55:21.596Z,11.70
2018-04-27T02:56:22.671Z,11.70
2018-04-27T02:57:24.495Z,11.60
2018-04-27T02:58:26.294Z,11.60
2018-04-27T02:59:27.383Z,11.60
2018-04-27T03:00:28.468Z,11.60
2018-04-27T03:01:29.541Z,11.60
2018-04-27T03:02:31.339Z,11.60
2018-04-27T03:03:32.396Z,11.60
2018-04-27T03:04:33.485Z,11.60
2018-04-27T03:05:34.542Z,11.60
2018-04-27T03:06:35.612Z,11.60
2018-04-27T03:07:37.423Z,11.60
2018-04-27T03:08:38.495Z,11.60
2018-04-27T03:09:40.295Z,11.60
2018-04-27T03:10:41.383Z,11.60
2018-04-27T03:11:43.194Z,11.60
2018-04-27T03:12:44.271Z,11.60
2018-04-27T03:13:45.331Z,11.60
2018-04-27T03:14:46.386Z,11.60
2018-04-27T03:15:47.460Z,11.60
2018-04-27T03:16:49.253Z,11.70
2018-04-27T03:17:50.340Z,11.60
2018-04-27T03:18:52.146Z,11.70
2018-04-27T03:19:53.199Z,11.60
2018-04-27T03:20:54.263Z,11.70
2018-04-27T03:21:55.320Z,11.70
2018-04-27T03:22:57.121Z,11.60
2018-04-27T03:23:59.041Z,11.60
2018-04-27T03:25:00.816Z,11.50
2018-04-27T03:26:02.660Z,11.50
2018-04-27T03:27:03.748Z,11.50
2018-04-27T03:28:04.831Z,11.40
2018-04-27T03:29:05.911Z,11.40
2018-04-27T03:30:07.024Z,11.30
2018-04-27T03:31:08.104Z,11.30
2018-04-27T03:32:09.187Z,11.30
2018-04-27T03:33:10.991Z,11.30
2018-04-27T03:34:12.123Z,11.30
2018-04-27T03:35:13.171Z,11.30
2018-04-27T03:36:14.240Z,11.30
2018-04-27T03:37:15.308Z,11.20
2018-04-27T03:38:16.376Z,11.30
2018-04-27T03:39:17.437Z,11.30
2018-04-27T03:40:18.519Z,11.30
2018-04-27T03:41:19.615Z,11.30
2018-04-27T03:42:20.680Z,11.30
2018-04-27T03:43:21.755Z,11.30
2018-04-27T03:44:22.812Z,11.30
2018-04-27T03:45:23.919Z,11.20
2018-04-27T03:46:24.964Z,11.20
2018-04-27T03:47:26.010Z,11.20
2018-04-27T03:48:27.085Z,11.20
2018-04-27T03:49:28.151Z,11.20
2018-04-27T03:50:29.220Z,11.20
2018-04-27T03:51:30.284Z,11.20
2018-04-27T03:52:31.366Z,11.20
2018-04-27T03:53:32.435Z,11.20
2018-04-27T03:54:33.499Z,11.30
2018-04-27T03:55:35.324Z,11.30
2018-04-27T03:56:36.397Z,11.30
2018-04-27T03:57:37.456Z,11.30
2018-04-27T03:58:38.510Z,11.30
2018-04-27T04:01:26.512Z,11.40
2018-04-27T04:02:40.659Z,11.40
2018-04-27T04:03:54.814Z,11.40
2018-04-27T04:05:08.210Z,11.30
2018-04-27T04:06:10.009Z,11.30
2018-04-27T04:07:11.810Z,11.30
2018-04-27T04:08:12.876Z,11.30
2018-04-27T04:09:13.943Z,11.40
2018-04-27T04:10:15.043Z,11.30
2018-04-27T04:11:16.167Z,11.30
2018-04-27T04:12:17.234Z,11.20
2018-04-27T04:13:19.045Z,11.20
2018-04-27T04:14:20.090Z,11.20
2018-04-27T04:15:21.144Z,11.20
2018-04-27T04:16:22.215Z,11.20
2018-04-27T04:17:23.275Z,11.30
2018-04-27T04:18:24.354Z,11.30
2018-04-27T04:19:25.427Z,11.30
2018-04-27T04:20:26.470Z,11.30
2018-04-27T04:21:27.541Z,11.30
2018-04-27T04:22:29.354Z,11.30
2018-04-27T04:23:30.410Z,11.30
2018-04-27T04:24:31.507Z,11.40
2018-04-27T04:25:32.575Z,11.50
2018-04-27T04:26:33.624Z,11.40
2018-04-27T04:27:35.415Z,11.40
2018-04-27T04:28:36.492Z,11.40
2018-04-27T04:29:37.547Z,11.40
2018-04-27T04:30:38.637Z,11.40
2018-04-27T04:31:39.713Z,11.40
2018-04-27T04:32:40.782Z,11.50
2018-04-27T04:33:41.920Z,11.40
2018-04-27T04:34:42.968Z,11.40
2018-04-27T04:35:44.079Z,11.40
2018-04-27T04:36:45.928Z,11.40
2018-04-27T04:37:46.991Z,11.40
2018-04-27T04:38:48.084Z,11.40
2018-04-27T04:39:49.144Z,11.30
2018-04-27T04:40:50.223Z,11.30
2018-04-27T04:41:51.287Z,11.30
2018-04-27T04:42:52.336Z,11.20
2018-04-27T04:43:53.394Z,11.20
2018-04-27T04:44:55.253Z,11.20
2018-04-27T04:45:56.332Z,11.20
2018-04-27T04:46:57.404Z,11.20
2018-04-27T04:47:58.467Z,11.20
2018-04-27T04:48:59.652Z,11.20
2018-04-27T04:50:00.735Z,11.20
2018-04-27T04:51:01.824Z,11.20
2018-04-27T04:52:02.899Z,11.20
2018-04-27T04:53:03.983Z,11.20
2018-04-27T04:54:05.062Z,11.20
2018-04-27T04:55:06.123Z,11.20
2018-04-27T04:56:07.247Z,11.30
2018-04-27T04:57:08.333Z,11.20
2018-04-27T04:58:09.439Z,11.20
2018-04-27T04:59:10.551Z,11.20
2018-04-27T05:00:11.625Z,11.20
2018-04-27T05:01:13.439Z,11.10
2018-04-27T05:02:14.515Z,11.10
2018-04-27T05:03:15.590Z,11.20
2018-04-27T05:04:16.894Z,11.20
2018-04-27T05:05:17.983Z,11.20
2018-04-27T05:06:19.284Z,11.20
2018-04-27T05:07:20.373Z,11.20
2018-04-27T05:08:21.563Z,11.10
2018-04-27T05:09:22.530Z,11.10
2018-04-27T05:10:23.946Z,11.10
2018-04-27T05:11:25.023Z,11.20
2018-04-27T05:12:26.867Z,11.20
2018-04-27T05:13:27.929Z,11.00
2018-04-27T05:14:28.983Z,11.20
2018-04-27T05:15:30.065Z,11.20
2018-04-27T05:16:31.964Z,11.20
2018-04-27T05:17:33.044Z,11.10
2018-04-27T05:20:05.527Z,11.20
2018-04-27T05:21:06.603Z,11.20
2018-04-27T05:22:07.715Z,11.20
2018-04-27T05:23:08.811Z,11.20
2018-04-27T05:24:09.972Z,11.20
2018-04-27T05:25:11.028Z,11.20
2018-04-27T05:26:12.156Z,11.20
2018-04-27T05:27:13.258Z,11.20
2018-04-27T05:28:14.698Z,11.30
2018-04-27T05:29:15.923Z,11.30
2018-04-27T05:30:17.202Z,11.30
2018-04-27T05:31:23.158Z,11.30
2018-04-27T05:32:25.231Z,11.30
2018-04-27T05:33:26.346Z,11.30
2018-04-27T05:34:27.455Z,11.30
2018-04-27T05:35:28.510Z,11.30
2018-04-27T05:36:29.585Z,11.30
2018-04-27T05:37:30.685Z,11.20
2018-04-27T05:38:31.796Z,11.20
2018-04-27T05:39:33.616Z,11.20
2018-04-27T05:40:34.788Z,11.20
2018-04-27T05:41:35.790Z,11.20
2018-04-27T05:42:36.866Z,11.30
2018-04-27T05:43:37.941Z,11.30
2018-04-27T05:44:39.009Z,11.40
2018-04-27T05:45:40.090Z,11.40
2018-04-27T05:46:41.175Z,11.50
2018-04-27T05:47:42.282Z,11.60
2018-04-27T05:48:43.384Z,11.60
2018-04-27T05:49:44.452Z,11.70
2018-04-27T05:50:45.526Z,11.80
2018-04-27T05:51:46.603Z,11.90
2018-04-27T05:52:48.439Z,12.10
2018-04-27T05:53:50.268Z,12.20
2018-04-27T05:54:51.336Z,12.10
2018-04-27T05:55:53.147Z,12.30
2018-04-27T05:56:54.231Z,12.20
2018-04-27T05:57:55.299Z,12.20
2018-04-27T05:58:56.382Z,12.30
2018-04-27T05:59:58.185Z,12.30
2018-04-27T06:00:59.270Z,12.30
2018-04-27T06:02:01.077Z,12.30
2018-04-27T06:03:02.151Z,12.30
2018-04-27T06:04:12.439Z,12.50
2018-04-27T06:05:13.532Z,12.40
2018-04-27T06:06:14.607Z,12.50
2018-04-27T06:07:15.687Z,12.40
2018-04-27T06:08:16.766Z,12.60
2018-04-27T06:09:17.844Z,12.60
2018-04-27T06:10:19.651Z,12.70
2018-04-27T06:11:20.727Z,12.70
2018-04-27T06:12:22.579Z,12.60
2018-04-27T06:13:24.399Z,12.60
2018-04-27T06:14:25.516Z,12.60
2018-04-27T06:15:26.679Z,12.60
2018-04-27T06:16:27.770Z,12.60
2018-04-27T06:17:28.919Z,12.70
2018-04-27T06:18:29.975Z,12.70
2018-04-27T06:19:31.076Z,12.70
2018-04-27T06:20:32.157Z,12.70
2018-04-27T06:21:33.983Z,12.70
2018-04-27T06:22:35.097Z,12.70
2018-04-27T06:23:36.202Z,12.70
2018-04-27T06:24:37.258Z,12.70
2018-04-27T06:25:38.386Z,12.70
2018-04-27T06:26:39.422Z,12.70
2018-04-27T06:27:40.496Z,12.80
2018-04-27T06:28:44.534Z,12.80
2018-04-27T06:29:45.595Z,12.80
2018-04-27T06:30:46.675Z,12.80
2018-04-27T06:31:47.832Z,12.70
2018-04-27T06:32:48.871Z,12.70
2018-04-27T06:33:49.931Z,12.70
2018-04-27T06:34:51.003Z,12.70
2018-04-27T06:35:52.863Z,12.90
2018-04-27T06:36:54.695Z,12.90
2018-04-27T06:37:55.795Z,12.90
2018-04-27T06:38:56.860Z,12.90
2018-04-27T06:39:58.658Z,13.00
2018-04-27T06:40:59.707Z,13.00
2018-04-27T06:42:00.790Z,13.10
2018-04-27T06:43:01.880Z,13.10
2018-04-27T06:44:02.955Z,13.20
2018-04-27T06:45:04.173Z,13.20
2018-04-27T06:46:05.147Z,13.20
2018-04-27T06:47:06.236Z,13.30
2018-04-27T06:48:08.080Z,13.30
2018-04-27T06:49:09.159Z,13.30
2018-04-27T06:50:10.245Z,13.40
2018-04-27T06:51:12.071Z,13.30
2018-04-27T06:52:13.155Z,13.30
2018-04-27T06:53:14.258Z,13.30
2018-04-27T06:54:16.097Z,13.30
2018-04-27T06:55:17.187Z,13.30
2018-04-27T06:56:18.272Z,13.30
2018-04-27T06:57:20.097Z,13.30
2018-04-27T06:58:21.213Z,13.30
2018-04-27T06:59:22.360Z,13.50
2018-04-27T07:00:23.403Z,13.30
2018-04-27T07:01:24.501Z,13.40
2018-04-27T07:02:25.606Z,13.40
2018-04-27T07:03:26.683Z,13.40
2018-04-27T07:04:27.738Z,13.50
2018-04-27T07:05:28.807Z,13.50
2018-04-27T07:06:29.872Z,13.50
2018-04-27T07:07:30.953Z,13.50
2018-04-27T07:08:32.021Z,13.70
2018-04-27T07:09:33.134Z,13.60
2018-04-27T07:10:34.249Z,13.70
2018-04-27T07:11:36.126Z,13.80
2018-04-27T07:12:37.244Z,13.80
2018-04-27T07:13:38.334Z,14.00
2018-04-27T07:14:39.400Z,13.90
2018-04-27T07:15:40.488Z,13.80
2018-04-27T07:16:41.563Z,13.80
2018-04-27T07:17:43.387Z,13.90
2018-04-27T07:18:44.464Z,13.90
2018-04-27T07:19:45.564Z,13.90
2018-04-27T07:20:46.655Z,13.90
2018-04-27T07:21:48.471Z,13.90
2018-04-27T07:22:49.578Z,13.90
2018-04-27T07:23:50.676Z,13.90
2018-04-27T07:24:51.767Z,13.90
2018-04-27T07:25:52.849Z,13.90
2018-04-27T07:26:53.942Z,14.00
2018-04-27T07:27:55.029Z,13.90
2018-04-27T07:28:56.111Z,13.90
2018-04-27T07:29:57.175Z,13.90
2018-04-27T07:30:58.254Z,14.00
2018-04-27T07:31:59.341Z,14.00
2018-04-27T07:33:00.428Z,14.10
2018-04-27T07:34:01.555Z,14.10
2018-04-27T07:35:02.645Z,14.20
2018-04-27T07:36:03.715Z,14.20
2018-04-27T07:37:05.562Z,14.30
2018-04-27T07:38:06.655Z,14.30
2018-04-27T07:39:07.727Z,14.40
2018-04-27T07:40:09.556Z,14.40
2018-04-27T07:41:10.635Z,14.40
2018-04-27T07:42:11.719Z,14.40
2018-04-27T07:43:12.874Z,14.40
2018-04-27T07:44:14.697Z,14.40
2018-04-27T07:45:15.800Z,14.40
2018-04-27T07:46:16.895Z,14.50
2018-04-27T07:47:18.008Z,14.50
2018-04-27T07:48:19.850Z,14.60
2018-04-27T07:49:20.979Z,14.40
2018-04-27T07:50:22.063Z,14.60
2018-04-27T07:51:23.151Z,14.70
2018-04-27T07:52:24.267Z,14.80
2018-04-27T07:53:25.362Z,14.90
2018-04-27T07:54:26.446Z,15.00
2018-04-27T07:55:27.544Z,15.10
2018-04-27T07:56:28.603Z,15.10
2018-04-27T07:57:29.705Z,15.20
2018-04-27T07:58:30.798Z,15.20
2018-04-27T07:59:32.628Z,15.30
2018-04-27T08:00:33.818Z,15.30
2018-04-27T08:01:34.905Z,15.40
2018-04-27T08:02:36.027Z,15.50
2018-04-27T08:03:37.151Z,15.50
2018-04-27T08:04:38.270Z,15.70
2018-04-27T08:05:39.404Z,15.50
2018-04-27T08:06:40.551Z,15.50
2018-04-27T08:07:41.722Z,15.50
2018-04-27T08:08:42.803Z,15.60
2018-04-27T08:09:43.952Z,15.60
2018-04-27T08:10:45.071Z,15.70
2018-04-27T08:11:46.158Z,15.70
2018-04-27T08:12:47.244Z,15.80
2018-04-27T08:13:49.157Z,15.90
2018-04-27T08:14:50.251Z,15.90
2018-04-27T08:15:51.439Z,15.90
2018-04-27T08:16:52.515Z,15.90
2018-04-27T08:17:53.585Z,16.00
2018-04-27T08:18:54.678Z,16.00
2018-04-27T08:19:55.771Z,16.00
2018-04-27T08:20:57.597Z,16.00
2018-04-27T08:21:58.672Z,16.00
2018-04-27T08:23:00.732Z,16.00
2018-04-27T08:24:01.843Z,15.90
2018-04-27T08:25:02.966Z,15.90
2018-04-27T08:26:04.046Z,15.90
2018-04-27T08:27:05.131Z,15.90
2018-04-27T08:28:06.229Z,15.80
2018-04-27T08:29:07.324Z,15.90
2018-04-27T08:30:08.428Z,16.00
2018-04-27T08:31:09.512Z,16.00
2018-04-27T08:32:11.319Z,16.10
2018-04-27T08:33:12.422Z,16.10
2018-04-27T08:34:13.524Z,16.20
2018-04-27T08:35:15.367Z,16.30
2018-04-27T08:36:16.527Z,16.30
2018-04-27T08:37:17.519Z,16.30
2018-04-27T08:38:18.592Z,16.30
2018-04-27T08:39:19.676Z,16.40
2018-04-27T08:40:20.779Z,16.50
2018-04-27T08:41:21.900Z,16.40
2018-04-27T08:42:22.972Z,16.50
2018-04-27T08:43:24.074Z,16.50
2018-04-27T08:44:25.167Z,16.50
2018-04-27T08:45:26.267Z,16.60
2018-04-27T08:46:28.207Z,16.60
2018-04-27T08:47:29.291Z,16.60
2018-04-27T08:48:30.370Z,16.60
2018-04-27T08:49:31.519Z,16.70
2018-04-27T08:50:32.724Z,16.70
2018-04-27T08:51:33.699Z,16.80
2018-04-27T08:52:34.807Z,16.80
2018-04-27T08:53:35.883Z,16.80
2018-04-27T08:54:36.987Z,16.80
2018-04-27T08:55:38.061Z,16.80
2018-04-27T08:56:39.160Z,16.90
2018-04-27T08:57:40.259Z,16.80
2018-04-27T08:58:41.364Z,16.90
2018-04-27T08:59:43.186Z,17.00
2018-04-27T09:00:44.284Z,16.90
2018-04-27T09:01:45.363Z,17.00
2018-04-27T09:02:47.207Z,17.10
2018-04-27T09:03:48.281Z,17.10
2018-04-27T09:04:49.362Z,17.20
2018-04-27T09:05:50.460Z,17.20
2018-04-27T09:06:51.534Z,17.20
2018-04-27T09:07:52.602Z,17.20
2018-04-27T09:08:53.683Z,17.30
2018-04-27T09:09:54.786Z,17.30
2018-04-27T09:10:55.861Z,17.30
2018-04-27T09:11:57.240Z,17.40
2018-04-27T09:12:58.312Z,17.30
2018-04-27T09:13:59.392Z,17.50
2018-04-27T09:15:00.527Z,17.50
2018-04-27T09:16:01.638Z,17.60
2018-04-27T09:17:03.491Z,17.70
2018-04-27T09:18:04.578Z,17.60
2018-04-27T09:19:05.638Z,17.70
2018-04-27T09:20:06.719Z,17.70
2018-04-27T09:21:07.802Z,17.70
2018-04-27T09:22:09.665Z,17.80
2018-04-27T09:23:10.716Z,17.70
2018-04-27T09:24:12.551Z,17.80
2018-04-27T09:25:14.400Z,17.80
2018-04-27T09:26:15.507Z,17.80
2018-04-27T09:27:16.619Z,17.90
2018-04-27T09:28:17.686Z,17.80
2018-04-27T09:29:18.790Z,17.80
2018-04-27T09:30:19.898Z,17.80
2018-04-27T09:31:21.048Z,17.70
2018-04-27T09:32:22.124Z,17.70
2018-04-27T09:33:23.186Z,17.80
2018-04-27T09:34:24.274Z,17.80
2018-04-27T09:35:25.359Z,17.90
2018-04-27T09:36:26.431Z,17.80
2018-04-27T09:37:27.506Z,17.90
2018-04-27T09:38:29.310Z,18.00
2018-04-27T09:39:30.382Z,18.00
2018-04-27T09:40:32.201Z,18.10
2018-04-27T09:41:33.295Z,18.00
2018-04-27T09:42:34.371Z,18.10
2018-04-27T09:43:35.458Z,18.10
2018-04-27T09:44:36.543Z,18.20
2018-04-27T09:45:37.635Z,18.20
2018-04-27T09:46:38.732Z,18.20
2018-04-27T09:47:39.806Z,18.20
2018-04-27T09:48:40.874Z,18.20
2018-04-27T09:49:41.959Z,18.20
2018-04-27T09:50:43.105Z,18.20
2018-04-27T09:51:44.126Z,18.30
2018-04-27T09:52:45.195Z,18.50
2018-04-27T09:53:46.240Z,18.40
2018-04-27T09:54:47.294Z,18.40
2018-04-27T09:55:49.111Z,18.40
2018-04-27T09:56:50.239Z,18.50
2018-04-27T09:57:51.350Z,18.40
2018-04-27T09:58:52.443Z,18.30
2018-04-27T09:59:53.560Z,18.40
2018-04-27T10:00:55.405Z,18.40
2018-04-27T10:01:57.213Z,18.40
2018-04-27T10:02:58.286Z,18.40
2018-04-27T10:03:59.391Z,18.40
2018-04-27T10:05:00.467Z,18.40
2018-04-27T10:06:01.535Z,18.40
2018-04-27T10:07:02.619Z,18.50
2018-04-27T10:08:04.455Z,18.50
2018-04-27T10:09:05.533Z,18.50
2018-04-27T10:10:06.603Z,18.60
2018-04-27T10:11:07.692Z,18.60
2018-04-27T10:12:08.839Z,18.50
2018-04-27T10:13:09.916Z,18.70
2018-04-27T10:14:10.991Z,18.70
2018-04-27T10:15:12.071Z,18.70
2018-04-27T10:16:13.169Z,18.70
2018-04-27T10:17:14.257Z,18.70
2018-04-27T10:18:16.084Z,18.70
2018-04-27T10:19:17.158Z,18.70
2018-04-27T10:20:18.257Z,18.70
2018-04-27T10:21:19.366Z,18.70
2018-04-27T10:22:20.472Z,18.80
2018-04-27T10:23:21.559Z,18.70
2018-04-27T10:24:23.388Z,18.70
2018-04-27T10:25:24.467Z,18.70
2018-04-27T10:26:26.275Z,18.60
2018-04-27T10:27:27.390Z,18.60
2018-04-27T10:28:28.460Z,18.60
2018-04-27T10:29:29.518Z,18.70
2018-04-27T10:30:30.608Z,18.70
2018-04-27T10:31:31.687Z,18.60
2018-04-27T10:32:32.777Z,18.70
2018-04-27T10:33:33.855Z,18.80
2018-04-27T10:34:34.931Z,18.60
2018-04-27T10:35:36.015Z,18.60
2018-04-27T10:36:37.097Z,18.70
2018-04-27T10:37:38.154Z,18.70
2018-04-27T10:38:39.259Z,18.70
2018-04-27T10:39:40.354Z,18.90
2018-04-27T10:40:41.424Z,18.80
2018-04-27T10:41:42.507Z,18.90
2018-04-27T10:42:43.603Z,18.90
2018-04-27T10:43:44.704Z,18.90
2018-04-27T10:44:45.784Z,18.90
2018-04-27T10:45:46.896Z,19.00
2018-04-27T10:46:47.966Z,19.10
2018-04-27T10:47:49.075Z,19.00
2018-04-27T10:48:50.913Z,19.00
2018-04-27T10:49:52.009Z,19.10
2018-04-27T10:50:53.083Z,19.10
2018-04-27T10:51:54.157Z,19.20
2018-04-27T10:52:55.244Z,19.20
2018-04-27T10:53:56.361Z,19.40
2018-04-27T10:54:57.448Z,19.30
2018-04-27T10:55:58.529Z,19.40
2018-04-27T10:56:59.647Z,19.60
2018-04-27T10:58:00.720Z,19.50
2018-04-27T10:59:02.551Z,19.40
2018-04-27T11:00:03.627Z,19.40
2018-04-27T11:01:04.719Z,19.40
2018-04-27T11:02:05.842Z,19.40
2018-04-27T11:03:06.906Z,19.40
2018-04-27T11:04:08.008Z,19.50
2018-04-27T11:05:09.083Z,19.60
2018-04-27T11:06:10.180Z,19.70
2018-04-27T11:07:11.290Z,19.60
2018-04-27T11:08:12.367Z,19.80
2018-04-27T11:10:21.264Z,19.80
2018-04-27T11:11:22.347Z,19.80
2018-04-27T11:12:23.425Z,19.90
2018-04-27T11:13:24.530Z,20.00
2018-04-27T11:14:25.610Z,19.90
2018-04-27T11:15:27.422Z,20.00
2018-04-27T11:16:28.512Z,20.00
2018-04-27T11:17:30.325Z,20.10
2018-04-27T11:18:31.389Z,20.10
2018-04-27T11:19:32.475Z,20.20
2018-04-27T11:20:33.543Z,20.20
2018-04-27T11:21:34.654Z,20.30
2018-04-27T11:22:35.726Z,20.30
2018-04-27T11:23:36.804Z,20.30
2018-04-27T11:24:37.876Z,20.40
2018-04-27T11:25:39.691Z,20.40
2018-04-27T11:26:40.787Z,20.40
2018-04-27T11:27:41.883Z,20.50
2018-04-27T11:28:43.713Z,20.60
2018-04-27T11:29:44.835Z,20.60
2018-04-27T11:30:45.882Z,20.60
2018-04-27T11:31:46.972Z,20.70
2018-04-27T11:32:48.038Z,20.70
2018-04-27T11:33:49.123Z,20.70
2018-04-27T11:34:50.206Z,20.70
2018-04-27T11:35:51.278Z,20.70
2018-04-27T11:36:52.374Z,20.70
2018-04-27T11:37:53.472Z,20.80
2018-04-27T11:38:54.570Z,20.80
2018-04-27T11:39:56.384Z,20.60
2018-04-27T11:40:57.468Z,20.70
2018-04-27T11:41:58.534Z,20.70
2018-04-27T11:42:59.595Z,20.60
2018-04-27T11:44:00.678Z,20.60
2018-04-27T11:45:01.739Z,20.60
2018-04-27T11:46:02.799Z,20.60
2018-04-27T11:47:03.874Z,20.60
2018-04-27T11:48:04.950Z,20.70
2018-04-27T11:49:06.022Z,20.80
2018-04-27T11:50:07.108Z,20.80
2018-04-27T11:51:08.983Z,20.90
2018-04-27T11:52:10.060Z,20.90
2018-04-27T11:53:11.204Z,21.00
2018-04-27T11:54:12.954Z,21.10
2018-04-27T11:55:14.046Z,21.10
2018-04-27T11:56:15.138Z,21.20
2018-04-27T11:57:16.989Z,21.30
2018-04-27T11:58:18.061Z,21.30
2018-04-27T11:59:19.147Z,21.30
2018-04-27T12:00:20.226Z,21.30
2018-04-27T12:01:21.324Z,21.40
2018-04-27T12:02:22.403Z,21.40
2018-04-27T12:03:23.488Z,21.40
2018-04-27T12:04:24.566Z,21.40
2018-04-27T12:05:25.648Z,21.40
2018-04-27T12:06:26.735Z,21.30
2018-04-27T12:07:27.814Z,21.30
2018-04-27T12:08:28.870Z,21.30
2018-04-27T12:09:29.967Z,21.30
2018-04-27T12:10:31.047Z,21.20
2018-04-27T12:11:32.143Z,21.20
2018-04-27T12:12:33.217Z,21.20
2018-04-27T12:13:34.276Z,21.20
2018-04-27T12:14:35.358Z,21.20
2018-04-27T12:15:36.451Z,21.30
2018-04-27T12:16:37.564Z,21.30
2018-04-27T12:17:38.716Z,21.30
2018-04-27T12:18:39.706Z,21.30
2018-04-27T12:19:40.767Z,21.30
2018-04-27T12:20:41.836Z,21.20
2018-04-27T12:21:42.927Z,21.20
2018-04-27T12:22:44.017Z,21.40
2018-04-27T12:23:45.839Z,21.40
2018-04-27T12:24:46.931Z,21.40
2018-04-27T12:25:48.001Z,21.50
2018-04-27T12:26:49.083Z,21.60
2018-04-27T12:27:50.150Z,21.70
2018-04-27T12:28:51.243Z,21.70
2018-04-27T12:29:52.336Z,21.90
2018-04-27T12:30:53.418Z,21.80
2018-04-27T12:31:54.519Z,21.80
2018-04-27T12:32:55.540Z,21.80
2018-04-27T12:33:56.607Z,21.80
2018-04-27T12:34:57.690Z,21.80
2018-04-27T12:35:58.756Z,21.80
2018-04-27T12:36:59.866Z,21.90
2018-04-27T12:38:00.943Z,22.00
2018-04-27T12:39:02.022Z,22.00
2018-04-27T12:40:03.084Z,22.10
2018-04-27T12:41:04.170Z,22.10
2018-04-27T12:42:05.267Z,22.20
2018-04-27T12:43:06.350Z,22.30
2018-04-27T12:44:07.431Z,22.40
2018-04-27T12:45:08.544Z,22.50
2018-04-27T12:46:10.363Z,22.60
2018-04-27T12:47:11.455Z,22.60
2018-04-27T12:48:12.552Z,22.70
2018-04-27T12:49:14.391Z,22.80
2018-04-27T12:50:16.217Z,22.80
2018-04-27T12:51:17.313Z,22.80
2018-04-27T12:52:18.500Z,22.80
2018-04-27T12:53:19.543Z,22.80
2018-04-27T12:54:20.634Z,22.90
2018-04-27T12:55:21.717Z,23.10
2018-04-27T12:56:23.538Z,23.10
2018-04-27T12:57:24.612Z,23.10
2018-04-27T12:58:25.702Z,23.10
2018-04-27T12:59:26.769Z,23.10
2018-04-27T13:00:28.590Z,23.30
2018-04-27T13:01:29.670Z,23.30
2018-04-27T13:02:30.734Z,23.30
2018-04-27T13:03:31.806Z,23.20
2018-04-27T13:04:32.861Z,23.20
2018-04-27T13:05:33.937Z,23.30
2018-04-27T13:06:35.020Z,23.30
2018-04-27T13:07:36.125Z,23.40
2018-04-27T13:08:37.971Z,23.40
2018-04-27T13:09:39.043Z,23.40
2018-04-27T13:10:40.127Z,23.50
2018-04-27T13:11:41.210Z,23.60
2018-04-27T13:12:42.316Z,23.70
2018-04-27T13:13:44.682Z,23.90
2018-04-27T13:14:46.511Z,24.00